Time;durP1;ratioP1;P1;durP2;ratioP2;P2;SDS_P1;SDS_P2;PMS_P1;PMS_P2;Temp;Humidity;BMP_temperature;BMP_pressure;BME280_temperature;BME280_humidity;BME280_pressure;Samples;Min_cycle;Max_cycle;Signal;HPM_P1;HPM_P2
2023/05/26 00:01:29;;;;;;;15.33;14.50;;;15.90;99.90;;;;;;4892794;29;20501;-83
2023/05/26 00:03:57;;;;;;;16.63;15.73;;;15.90;99.90;;;;;;4900153;29;20453;-84
2023/05/26 00:06:25;;;;;;;17.03;15.63;;;15.90;99.90;;;;;;4902199;29;20471;-84
2023/05/26 00:08:53;;;;;;;16.60;15.73;;;15.90;99.90;;;;;;4905960;29;20575;-84
2023/05/26 00:11:22;;;;;;;15.13;14.43;;;15.90;99.90;;;;;;4898712;29;20507;-83
2023/05/26 00:13:52;;;;;;;15.20;14.43;;;15.80;99.90;;;;;;4895167;29;20712;-83
2023/05/26 00:16:20;;;;;;;15.03;14.33;;;15.80;99.90;;;;;;4898973;29;20646;-84
2023/05/26 00:18:48;;;;;;;15.67;14.90;;;15.80;99.90;;;;;;4897639;29;20473;-84
2023/05/26 00:21:16;;;;;;;16.33;15.37;;;15.80;99.90;;;;;;4897760;29;21062;-83
2023/05/26 00:23:44;;;;;;;15.73;14.70;;;15.70;99.90;;;;;;4898618;29;20500;-84
2023/05/26 00:26:13;;;;;;;14.93;14.20;;;15.70;99.90;;;;;;4895301;29;21016;-83
2023/05/26 00:28:41;;;;;;;15.27;14.30;;;15.70;99.90;;;;;;4897840;29;20495;-83
2023/05/26 00:31:10;;;;;;;15.03;14.13;;;15.60;99.90;;;;;;4900414;29;20570;-83
2023/05/26 00:33:39;;;;;;;14.43;13.83;;;15.70;99.90;;;;;;4899851;29;20463;-83
2023/05/26 00:36:07;;;;;;;14.73;14.13;;;15.70;99.90;;;;;;4896539;29;20479;-84
2023/05/26 00:38:35;;;;;;;14.90;14.10;;;15.70;99.90;;;;;;4899521;29;21368;-83
2023/05/26 00:41:04;;;;;;;14.87;14.13;;;15.70;99.90;;;;;;4902792;29;20634;-83
2023/05/26 00:43:32;;;;;;;14.57;13.87;;;15.70;99.90;;;;;;4898491;29;21192;-83
2023/05/26 00:46:00;;;;;;;15.40;14.40;;;15.70;99.90;;;;;;4899721;29;20836;-83
2023/05/26 00:48:29;;;;;;;15.97;15.07;;;15.80;99.90;;;;;;4896457;29;20492;-84
2023/05/26 00:50:58;;;;;;;15.13;14.43;;;15.80;99.90;;;;;;4891449;29;21061;-84
2023/05/26 00:53:26;;;;;;;14.93;14.13;;;15.80;99.90;;;;;;4895286;29;20454;-84
2023/05/26 00:55:55;;;;;;;15.87;15.03;;;15.80;99.90;;;;;;4897058;29;20502;-83
2023/05/26 00:58:24;;;;;;;16.37;15.30;;;15.80;99.90;;;;;;4896216;29;20831;-83
2023/05/26 01:00:52;;;;;;;15.90;15.10;;;15.80;99.90;;;;;;4898237;29;20487;-83
2023/05/26 01:03:20;;;;;;;16.00;15.20;;;15.80;99.90;;;;;;4899209;29;20617;-83
2023/05/26 01:05:50;;;;;;;15.00;14.30;;;15.80;99.90;;;;;;4899842;29;20528;-83
2023/05/26 01:08:18;;;;;;;15.70;14.90;;;15.80;99.90;;;;;;4898075;29;20491;-83
2023/05/26 01:10:46;;;;;;;14.97;14.23;;;15.80;99.90;;;;;;4900289;29;20496;-83
2023/05/26 01:13:21;;;;;;;16.50;15.50;;;15.70;99.90;;;;;;4905072;29;20464;-83
2023/05/26 01:15:55;;;;;;;16.43;15.53;;;15.80;99.90;;;;;;4895975;29;20603;-83
2023/05/26 01:18:29;;;;;;;16.23;14.93;;;15.80;99.90;;;;;;4897941;29;20461;-83
2023/05/26 01:21:05;;;;;;;15.37;14.57;;;15.70;99.90;;;;;;4897088;29;20578;-83
2023/05/26 01:23:48;;;;;;;15.10;14.20;;;15.70;99.90;;;;;;4898267;29;20805;-83
2023/05/26 01:26:25;;;;;;;15.37;14.47;;;15.60;99.90;;;;;;4891038;29;20543;-83
2023/05/26 01:28:59;;;;;;;15.83;14.70;;;15.70;99.90;;;;;;4897598;29;20574;-83
2023/05/26 01:31:27;;;;;;;14.50;13.80;;;15.70;99.90;;;;;;4910368;29;20474;-83
2023/05/26 01:33:55;;;;;;;14.77;14.00;;;15.60;99.90;;;;;;4895689;29;20464;-83
2023/05/26 01:36:24;;;;;;;15.53;14.70;;;15.60;99.90;;;;;;4898022;29;20576;-82
2023/05/26 01:38:52;;;;;;;15.20;14.50;;;15.60;99.90;;;;;;4897996;29;20553;-82
2023/05/26 01:41:27;;;;;;;14.53;13.93;;;15.70;99.90;;;;;;4899167;29;21016;-83
2023/05/26 01:44:02;;;;;;;15.17;14.43;;;15.60;99.90;;;;;;4892241;29;20468;-82
2023/05/26 01:46:39;;;;;;;15.27;14.37;;;15.50;99.90;;;;;;4899035;29;20490;-82
2023/05/26 01:49:10;;;;;;;15.30;14.60;;;15.50;99.90;;;;;;4898988;29;20485;-82
2023/05/26 01:51:43;;;;;;;14.80;13.90;;;15.50;99.90;;;;;;4891608;29;20469;-82
2023/05/26 01:54:14;;;;;;;15.90;15.10;;;15.40;99.90;;;;;;4898087;29;20467;-83
2023/05/26 01:56:44;;;;;;;15.13;14.37;;;15.40;99.90;;;;;;4897734;29;20462;-84
2023/05/26 01:59:17;;;;;;;15.00;14.20;;;15.40;99.90;;;;;;4912844;29;20458;-84
2023/05/26 02:01:45;;;;;;;15.00;14.30;;;15.40;99.90;;;;;;4898569;29;20509;-83
2023/05/26 02:04:13;;;;;;;14.60;14.00;;;15.40;99.90;;;;;;4895033;29;20462;-83
2023/05/26 02:06:41;;;;;;;14.60;13.90;;;15.40;99.90;;;;;;4898893;29;20903;-84
2023/05/26 02:09:09;;;;;;;16.70;15.70;;;15.40;99.90;;;;;;4898190;29;20491;-83
2023/05/26 02:11:37;;;;;;;15.00;14.30;;;15.40;99.90;;;;;;4900754;29;20473;-83
2023/05/26 02:14:05;;;;;;;16.47;15.57;;;15.40;99.90;;;;;;4898250;29;20467;-84
2023/05/26 02:16:35;;;;;;;15.67;14.60;;;15.40;99.90;;;;;;4896830;29;20487;-84
2023/05/26 02:19:04;;;;;;;15.87;14.97;;;15.40;99.90;;;;;;4898425;29;20518;-83
2023/05/26 02:21:32;;;;;;;16.07;15.20;;;15.50;99.90;;;;;;4896458;29;20467;-83
2023/05/26 02:24:00;;;;;;;15.83;15.07;;;15.40;99.90;;;;;;4897666;29;20995;-83
2023/05/26 02:26:28;;;;;;;16.00;15.00;;;15.50;99.90;;;;;;4896745;29;21069;-83
2023/05/26 02:28:56;;;;;;;15.93;15.20;;;15.50;99.90;;;;;;4891876;29;20464;-83
2023/05/26 02:31:25;;;;;;;14.37;13.70;;;15.50;99.90;;;;;;4912935;29;20569;-83
2023/05/26 02:33:54;;;;;;;15.03;14.27;;;15.50;99.90;;;;;;4900911;29;20454;-83
2023/05/26 02:36:23;;;;;;;14.80;14.07;;;15.50;99.90;;;;;;4897672;29;20466;-85
2023/05/26 02:38:51;;;;;;;15.30;14.40;;;15.50;99.90;;;;;;4898636;29;20468;-83
2023/05/26 02:41:19;;;;;;;15.07;14.17;;;15.50;99.90;;;;;;4895234;29;20484;-83
2023/05/26 02:43:48;;;;;;;15.10;14.23;;;15.40;99.90;;;;;;4898794;29;20509;-83
2023/05/26 02:46:16;;;;;;;15.10;14.50;;;15.50;99.90;;;;;;4911285;29;20471;-82
2023/05/26 02:48:44;;;;;;;15.67;14.87;;;15.50;99.90;;;;;;4899739;29;20512;-82
2023/05/26 02:51:13;;;;;;;15.63;14.80;;;15.40;99.90;;;;;;4896900;29;21093;-82
2023/05/26 02:53:41;;;;;;;15.03;14.30;;;15.40;99.90;;;;;;4897960;29;20467;-82
2023/05/26 02:56:10;;;;;;;16.87;15.80;;;15.40;99.90;;;;;;4903173;29;20452;-81
2023/05/26 02:58:38;;;;;;;16.83;15.57;;;15.40;99.90;;;;;;4897831;29;20479;-82
2023/05/26 03:01:06;;;;;;;16.10;14.90;;;15.30;99.90;;;;;;4900809;29;20544;-83
2023/05/26 03:03:35;;;;;;;16.90;15.50;;;15.30;99.90;;;;;;4896298;29;20589;-83
2023/05/26 03:06:04;;;;;;;16.70;15.57;;;15.30;99.90;;;;;;4897132;29;20472;-83
2023/05/26 03:08:34;;;;;;;16.07;15.17;;;15.30;99.90;;;;;;4896654;29;20463;-82
2023/05/26 03:11:02;;;;;;;16.80;15.80;;;15.30;99.90;;;;;;4901098;29;20490;-82
2023/05/26 03:13:38;;;;;;;17.60;16.43;;;15.30;99.90;;;;;;4899599;29;20467;-82
2023/05/26 03:16:07;;;;;;;17.13;16.13;;;15.30;99.90;;;;;;4897669;29;21049;-83
2023/05/26 03:18:35;;;;;;;17.10;16.07;;;15.20;99.90;;;;;;4901783;29;20459;-82
2023/05/26 03:21:06;;;;;;;17.10;16.03;;;15.20;99.90;;;;;;4901026;29;20486;-83
2023/05/26 03:23:55;;;;;;;16.90;15.80;;;15.20;99.90;;;;;;4900546;29;20465;-83
2023/05/26 03:26:23;;;;;;;16.30;15.40;;;15.10;99.90;;;;;;4898292;29;21031;-84
2023/05/26 03:28:51;;;;;;;17.10;16.13;;;15.10;99.90;;;;;;4899725;29;20484;-83
2023/05/26 03:31:19;;;;;;;16.90;16.10;;;15.10;99.90;;;;;;4893647;29;20492;-83
2023/05/26 03:33:48;;;;;;;16.50;15.60;;;15.10;99.90;;;;;;4899531;29;20463;-81
2023/05/26 03:36:16;;;;;;;16.50;15.50;;;15.10;99.90;;;;;;4899740;29;20468;-83
2023/05/26 03:38:44;;;;;;;16.20;15.30;;;15.10;99.90;;;;;;4899967;29;20472;-82
2023/05/26 03:41:13;;;;;;;16.63;15.37;;;15.10;99.90;;;;;;4902157;29;20479;-84
2023/05/26 03:43:42;;;;;;;16.93;16.03;;;15.10;99.90;;;;;;4901538;29;20466;-83
2023/05/26 03:46:10;;;;;;;16.70;15.63;;;15.20;99.90;;;;;;4900440;29;21013;-83
2023/05/26 03:48:38;;;;;;;15.80;15.00;;;15.20;99.90;;;;;;4897182;29;20993;-83
2023/05/26 03:51:06;;;;;;;16.53;15.57;;;15.10;99.90;;;;;;4894477;29;20544;-83
2023/05/26 03:53:34;;;;;;;16.00;15.00;;;15.10;99.90;;;;;;4899502;29;20580;-84
2023/05/26 03:56:03;;;;;;;16.17;15.27;;;15.10;99.90;;;;;;4899358;29;20478;-83
2023/05/26 03:58:32;;;;;;;15.93;15.03;;;15.10;99.90;;;;;;4899822;29;21181;-83
2023/05/26 04:01:01;;;;;;;16.97;15.90;;;15.10;99.90;;;;;;4897855;29;20486;-83
2023/05/26 04:03:29;;;;;;;17.10;16.07;;;15.10;99.90;;;;;;4896014;29;20550;-84
2023/05/26 04:05:59;;;;;;;16.53;15.60;;;15.10;99.90;;;;;;4898897;29;20455;-84
2023/05/26 04:08:28;;;;;;;17.27;16.27;;;15.10;99.90;;;;;;4898302;29;20582;-83
2023/05/26 04:10:56;;;;;;;16.70;15.70;;;15.10;99.90;;;;;;4877555;29;1060339;-83
2023/05/26 04:13:24;;;;;;;16.73;16.00;;;15.10;99.90;;;;;;4896953;29;20511;-83
2023/05/26 04:15:54;;;;;;;16.50;15.30;;;15.00;99.90;;;;;;4902069;29;20672;-83
2023/05/26 04:18:23;;;;;;;16.73;15.80;;;15.00;99.90;;;;;;4899280;29;20469;-84
2023/05/26 04:20:51;;;;;;;17.30;16.20;;;15.00;99.90;;;;;;4899356;29;20477;-82
2023/05/26 04:23:19;;;;;;;16.20;15.50;;;15.00;99.90;;;;;;4901410;29;20998;-83
2023/05/26 04:25:48;;;;;;;16.70;15.70;;;15.00;99.90;;;;;;4901103;29;20474;-83
2023/05/26 04:28:16;;;;;;;16.97;15.63;;;15.00;99.90;;;;;;4901871;29;20492;-83
2023/05/26 04:30:44;;;;;;;17.53;16.43;;;15.00;99.90;;;;;;4904286;29;20481;-82
2023/05/26 04:33:15;;;;;;;17.70;16.60;;;14.90;99.90;;;;;;4906682;29;20510;-81
2023/05/26 04:35:44;;;;;;;16.63;15.67;;;15.00;99.90;;;;;;4908014;29;20549;-81
2023/05/26 04:38:13;;;;;;;16.90;15.90;;;15.00;99.90;;;;;;4901992;29;20473;-82
2023/05/26 04:40:41;;;;;;;17.42;16.27;;;15.00;99.90;;;;;;4903306;29;20452;-81
2023/05/26 04:43:10;;;;;;;17.63;16.40;;;15.00;99.90;;;;;;4902796;29;20200;-81
2023/05/26 04:45:56;;;;;;;17.10;16.00;;;15.00;99.90;;;;;;4898311;29;20466;-82
2023/05/26 04:48:26;;;;;;;18.30;17.20;;;15.00;99.90;;;;;;4898505;29;20450;-82
2023/05/26 04:50:54;;;;;;;17.50;16.30;;;14.90;99.90;;;;;;4896775;29;20483;-84
2023/05/26 04:53:22;;;;;;;18.00;16.97;;;15.00;99.90;;;;;;4898020;29;20480;-82
2023/05/26 04:55:50;;;;;;;17.10;16.20;;;15.00;99.90;;;;;;4899284;29;20477;-85
2023/05/26 04:58:19;;;;;;;18.47;17.37;;;15.00;99.90;;;;;;4900705;29;20915;-84
2023/05/26 05:00:47;;;;;;;18.77;17.43;;;15.10;99.90;;;;;;4907680;29;20508;-84
2023/05/26 05:08:12;;;;;;;17.60;16.57;;;15.10;99.90;;;;;;4870931;29;20846;-84
2023/05/26 05:14:35;;;;;;;18.90;17.90;;;15.10;99.90;;;;;;4806380;29;20481;-85
2023/05/26 05:17:56;;;;;;;18.23;17.00;;;15.10;99.90;;;;;;4846757;29;20470;-84
2023/05/26 05:20:56;;;;;;;18.87;17.87;;;15.10;99.90;;;;;;4885876;29;20518;-84
2023/05/26 05:23:56;;;;;;;18.47;17.50;;;15.10;99.90;;;;;;4899015;29;20975;-85
2023/05/26 05:26:34;;;;;;;19.83;18.33;;;15.20;99.90;;;;;;4900752;29;20459;-84
2023/05/26 05:29:07;;;;;;;18.17;17.07;;;15.20;99.90;;;;;;4897008;29;20465;-84
2023/05/26 05:31:38;;;;;;;18.53;17.30;;;15.20;99.90;;;;;;4902690;29;20602;-83
2023/05/26 05:34:06;;;;;;;19.92;18.63;;;15.10;99.90;;;;;;4897533;29;20463;-84
2023/05/26 05:36:35;;;;;;;19.40;18.27;;;15.00;99.90;;;;;;4896864;29;20214;-85
2023/05/26 05:39:10;;;;;;;19.40;18.13;;;15.20;99.90;;;;;;4901628;29;20543;-85
2023/05/26 05:41:38;;;;;;;20.03;18.93;;;15.40;99.90;;;;;;4904266;29;20679;-84
2023/05/26 05:44:06;;;;;;;18.80;17.80;;;15.40;99.90;;;;;;4903240;29;20554;-86
2023/05/26 05:46:35;;;;;;;18.03;16.93;;;15.50;99.90;;;;;;4907985;29;20499;-85
2023/05/26 05:49:06;;;;;;;19.10;17.83;;;15.50;99.90;;;;;;4906306;29;20524;-85
2023/05/26 05:51:35;;;;;;;19.40;18.00;;;15.50;99.90;;;;;;4907053;29;20478;-85
2023/05/26 05:54:04;;;;;;;19.63;18.40;;;15.60;99.90;;;;;;4905857;29;20468;-86
2023/05/26 05:56:34;;;;;;;18.30;17.30;;;15.60;99.90;;;;;;4906139;29;20617;-86
2023/05/26 05:59:02;;;;;;;19.80;18.57;;;15.60;99.90;;;;;;4920662;29;20458;-85
2023/05/26 06:01:31;;;;;;;20.07;18.80;;;15.60;99.90;;;;;;4907852;29;20976;-84
2023/05/26 06:03:59;;;;;;;20.33;19.10;;;15.70;99.90;;;;;;4923186;29;20481;-85
2023/05/26 06:06:28;;;;;;;21.17;19.50;;;15.70;99.90;;;;;;4902446;29;20481;-86
2023/05/26 06:08:56;;;;;;;20.10;18.97;;;15.80;99.90;;;;;;4908390;29;20463;-85
2023/05/26 06:11:28;;;;;;;21.50;20.00;;;15.80;99.90;;;;;;4903910;29;20484;-86
2023/05/26 06:13:58;;;;;;;20.67;19.40;;;15.90;99.90;;;;;;4906249;29;20473;-85
2023/05/26 06:16:27;;;;;;;20.97;19.37;;;15.90;99.90;;;;;;4906347;29;20550;-85
2023/05/26 06:18:55;;;;;;;20.00;18.90;;;16.00;99.90;;;;;;4901421;29;20460;-84
2023/05/26 06:21:24;;;;;;;20.30;19.10;;;16.10;99.90;;;;;;4906154;29;20486;-87
2023/05/26 06:23:53;;;;;;;20.40;18.80;;;16.10;99.90;;;;;;4902912;29;20469;-87
2023/05/26 06:26:21;;;;;;;20.37;19.17;;;16.20;99.90;;;;;;4906373;29;20496;-86
2023/05/26 06:28:49;;;;;;;21.70;20.30;;;16.20;99.90;;;;;;4903409;29;21877;-85
2023/05/26 06:31:19;;;;;;;19.77;18.30;;;16.30;99.90;;;;;;4906106;29;20498;-85
2023/05/26 06:33:48;;;;;;;20.20;19.07;;;16.40;99.90;;;;;;4901786;29;20452;-86
2023/05/26 06:36:16;;;;;;;20.43;18.93;;;16.50;99.90;;;;;;4918021;29;20477;-85
2023/05/26 06:38:45;;;;;;;21.00;19.63;;;16.60;99.90;;;;;;4904601;29;20459;-86
2023/05/26 06:41:13;;;;;;;19.73;18.53;;;16.70;99.90;;;;;;4904384;29;20493;-84
2023/05/26 06:43:42;;;;;;;20.70;19.33;;;16.80;99.90;;;;;;4903623;29;20508;-85
2023/05/26 06:46:10;;;;;;;20.77;19.37;;;16.90;99.90;;;;;;4903565;29;20879;-87
2023/05/26 06:48:40;;;;;;;19.07;18.27;;;16.90;99.90;;;;;;4902195;29;20487;-86
2023/05/26 06:51:08;;;;;;;21.33;19.83;;;16.90;99.90;;;;;;4906551;29;20481;-86
2023/05/26 06:53:38;;;;;;;20.70;19.40;;;17.00;99.90;;;;;;4909456;29;20472;-86
2023/05/26 06:56:06;;;;;;;21.20;19.80;;;17.10;99.90;;;;;;4906509;29;20472;-86
2023/05/26 06:58:35;;;;;;;20.60;19.33;;;17.10;99.90;;;;;;4907385;29;20483;-86
2023/05/26 07:01:05;;;;;;;21.03;19.83;;;17.20;99.90;;;;;;4907698;29;20493;-87
2023/05/26 07:03:33;;;;;;;21.33;20.03;;;17.20;99.90;;;;;;4906172;29;21046;-86
2023/05/26 07:06:04;;;;;;;19.57;18.57;;;17.30;99.90;;;;;;4904631;29;20465;-90
2023/05/26 07:08:33;;;;;;;20.60;19.50;;;17.40;99.90;;;;;;4902568;29;20573;-86
2023/05/26 07:11:01;;;;;;;21.17;19.77;;;17.40;99.90;;;;;;4898824;29;20506;-85
2023/05/26 07:13:29;;;;;;;22.50;20.77;;;17.50;99.90;;;;;;4906160;29;21276;-87
2023/05/26 07:15:58;;;;;;;19.77;18.87;;;17.40;99.90;;;;;;4907155;29;20466;-85
2023/05/26 07:18:26;;;;;;;20.23;18.77;;;17.50;99.90;;;;;;4903680;29;20476;-87
2023/05/26 07:20:54;;;;;;;20.67;19.33;;;17.50;99.90;;;;;;4907580;29;20581;-87
2023/05/26 07:23:24;;;;;;;20.60;19.20;;;17.60;99.90;;;;;;4902847;29;20500;-84
2023/05/26 07:25:53;;;;;;;21.57;19.90;;;17.60;99.90;;;;;;4905016;29;20462;-85
2023/05/26 07:28:21;;;;;;;21.00;19.73;;;17.70;99.90;;;;;;4904311;29;20469;-85
2023/05/26 07:30:49;;;;;;;20.57;19.20;;;17.70;99.90;;;;;;4904946;29;21087;-86
2023/05/26 07:33:17;;;;;;;21.37;20.10;;;17.60;99.90;;;;;;4906837;29;20548;-86
2023/05/26 07:35:46;;;;;;;21.57;20.17;;;17.70;99.90;;;;;;4902933;29;20472;-88
2023/05/26 07:38:14;;;;;;;21.13;19.93;;;17.80;99.90;;;;;;4905337;29;20468;-85
2023/05/26 07:40:44;;;;;;;22.47;20.93;;;17.80;99.90;;;;;;4903939;29;20483;-86
2023/05/26 07:43:14;;;;;;;20.80;19.80;;;17.80;99.90;;;;;;4906504;29;20465;-87
2023/05/26 07:45:42;;;;;;;21.53;20.23;;;17.80;99.90;;;;;;4900910;29;21327;-87
2023/05/26 07:48:10;;;;;;;22.23;20.73;;;17.90;99.90;;;;;;4908360;29;20473;-86
2023/05/26 07:50:39;;;;;;;22.93;21.50;;;17.90;99.90;;;;;;4919840;29;21112;-86
2023/05/26 07:53:07;;;;;;;22.53;21.30;;;18.00;99.90;;;;;;4905270;29;21070;-85
2023/05/26 07:55:36;;;;;;;21.17;20.10;;;18.00;99.90;;;;;;4905155;29;20466;-86
2023/05/26 07:58:06;;;;;;;22.03;20.50;;;18.10;99.90;;;;;;4903823;29;20468;-86
2023/05/26 08:00:34;;;;;;;22.07;20.77;;;18.10;99.90;;;;;;4905119;29;21029;-87
2023/05/26 08:03:03;;;;;;;23.37;21.73;;;18.20;99.90;;;;;;4903961;29;20442;-86
2023/05/26 08:05:32;;;;;;;22.53;21.13;;;18.20;99.90;;;;;;4908026;29;21160;-86
2023/05/26 08:08:00;;;;;;;22.40;20.93;;;18.30;99.90;;;;;;4907114;29;20453;-86
2023/05/26 08:10:28;;;;;;;21.20;20.30;;;18.30;99.90;;;;;;4902664;29;20548;-86
2023/05/26 08:12:57;;;;;;;21.90;20.70;;;18.30;99.90;;;;;;4910965;29;20480;-85
2023/05/26 08:15:27;;;;;;;22.00;20.67;;;18.40;99.90;;;;;;4903994;29;20449;-87
2023/05/26 08:17:55;;;;;;;22.20;20.97;;;18.50;99.90;;;;;;4907751;29;20459;-87
2023/05/26 08:20:23;;;;;;;23.03;21.43;;;18.50;99.90;;;;;;4909343;29;20526;-85
2023/05/26 08:22:52;;;;;;;23.03;21.73;;;18.50;99.90;;;;;;4909384;29;20495;-86
2023/05/26 08:25:20;;;;;;;22.60;21.07;;;18.60;99.90;;;;;;4904617;29;20509;-85
2023/05/26 08:27:49;;;;;;;22.60;21.13;;;18.60;99.90;;;;;;4906808;29;20588;-85
2023/05/26 08:30:17;;;;;;;22.23;20.93;;;18.60;99.90;;;;;;4907065;29;20478;-87
2023/05/26 08:32:47;;;;;;;21.63;20.43;;;18.70;99.90;;;;;;4907204;29;20497;-85
2023/05/26 08:35:24;;;;;;;23.53;21.77;;;18.80;99.90;;;;;;4906717;29;21008;-87
2023/05/26 08:37:53;;;;;;;22.63;21.23;;;18.80;99.90;;;;;;4905855;29;20458;-85
2023/05/26 08:45:15;;;;;;;21.57;20.27;;;19.00;99.90;;;;;;4908004;29;21007;-86
2023/05/26 08:52:18;;;;;;;22.23;20.77;;;19.10;99.90;;;;;;4871773;29;20577;-86
2023/05/26 08:59:08;;;;;;;22.10;21.03;;;19.00;99.90;;;;;;4871708;29;20423;-84
2023/05/26 09:01:38;;;;;;;22.97;20.87;;;19.10;99.90;;;;;;4866748;29;20492;-86
2023/05/26 09:04:06;;;;;;;24.20;23.00;;;19.10;99.90;;;;;;4853414;29;20460;-86
2023/05/26 09:06:35;;;;;;;24.10;22.40;;;19.20;99.90;;;;;;4855407;29;20452;-86
2023/05/26 09:09:13;;;;;;;22.20;21.00;;;19.20;99.90;;;;;;4863705;29;20453;-87
2023/05/26 09:12:32;;;;;;;21.67;20.37;;;19.30;99.90;;;;;;4855961;29;20460;-86
2023/05/26 09:15:27;;;;;;;22.93;21.27;;;19.50;99.90;;;;;;4853702;29;20467;-86
2023/05/26 09:17:55;;;;;;;21.90;20.80;;;19.50;99.90;;;;;;4858122;29;20575;-87
2023/05/26 09:23:27;;;;;;;21.37;20.07;;;19.60;99.90;;;;;;4967764;23;20508;-88
2023/05/26 09:25:57;;;;;;;22.00;20.70;;;19.60;99.90;;;;;;4928052;29;20457;-88
2023/05/26 09:28:26;;;;;;;21.90;20.60;;;19.70;99.90;;;;;;4928621;29;20482;-88
2023/05/26 09:30:57;;;;;;;21.90;20.80;;;19.70;99.90;;;;;;4911378;29;21123;-86
2023/05/26 09:34:17;;;;;;;23.00;21.60;;;19.80;99.90;;;;;;4904213;29;21296;-87
2023/05/26 09:36:45;;;;;;;21.57;20.47;;;19.80;99.90;;;;;;4907634;29;21508;-88
2023/05/26 09:39:17;;;;;;;22.80;21.30;;;19.90;99.90;;;;;;4904387;29;20457;-87
2023/05/26 09:42:15;;;;;;;22.03;20.90;;;19.90;99.90;;;;;;4905891;29;20883;-87
2023/05/26 09:48:10;;;;;;;21.40;20.30;;;20.00;99.90;;;;;;4910201;29;20457;-86
2023/05/26 09:55:24;;;;;;;20.67;19.47;;;20.10;99.90;;;;;;4908319;29;20494;-86
2023/05/26 09:58:23;;;;;;;21.07;20.13;;;20.10;99.90;;;;;;4905017;29;20455;-87
2023/05/26 10:00:54;;;;;;;21.37;20.37;;;20.10;99.90;;;;;;5051412;23;20498;-87
2023/05/26 10:03:23;;;;;;;21.40;20.40;;;20.20;99.90;;;;;;4937640;28;20456;-88
2023/05/26 10:06:11;;;;;;;22.07;20.97;;;20.30;99.90;;;;;;4927522;29;20520;-90
2023/05/26 10:08:41;;;;;;;22.10;20.70;;;20.30;99.90;;;;;;4921190;29;20782;-87
2023/05/26 10:11:09;;;;;;;22.20;21.00;;;20.30;99.90;;;;;;5034415;23;20536;-87
2023/05/26 10:13:42;;;;;;;22.57;20.87;;;20.40;99.90;;;;;;4928572;29;20512;-87
2023/05/26 10:16:11;;;;;;;22.07;20.80;;;20.40;99.90;;;;;;4932538;29;20948;-87
2023/05/26 10:18:40;;;;;;;21.43;20.23;;;20.40;99.90;;;;;;4931007;29;20459;-87
2023/05/26 10:21:12;;;;;;;21.37;20.27;;;20.40;99.90;;;;;;4910488;29;20474;-87
2023/05/26 10:23:45;;;;;;;20.93;19.73;;;20.40;99.90;;;;;;4906733;29;20450;-87
2023/05/26 10:26:22;;;;;;;21.70;20.53;;;20.50;99.90;;;;;;4906048;29;21271;-87
2023/05/26 10:28:56;;;;;;;22.83;21.43;;;20.60;99.90;;;;;;4904540;29;20506;-88
2023/05/26 10:31:30;;;;;;;21.37;20.17;;;20.60;99.90;;;;;;4905611;29;20612;-88
2023/05/26 10:33:59;;;;;;;22.50;21.50;;;20.70;99.90;;;;;;4906018;29;20462;-88
2023/05/26 10:36:28;;;;;;;21.57;20.27;;;20.70;99.90;;;;;;4903277;29;20466;-89
2023/05/26 10:38:57;;;;;;;21.70;20.17;;;20.80;99.90;;;;;;4903865;29;20462;-87
2023/05/26 10:41:33;;;;;;;24.60;23.00;;;20.80;99.90;;;;;;4907037;29;20474;-88
2023/05/26 10:44:04;;;;;;;21.57;20.47;;;20.90;99.90;;;;;;4901490;29;20541;-88
2023/05/26 10:46:39;;;;;;;22.70;20.90;;;20.90;99.90;;;;;;4903712;29;20503;-89
2023/05/26 10:49:20;;;;;;;23.13;21.80;;;20.90;99.90;;;;;;4917824;29;20468;-87
2023/05/26 10:51:50;;;;;;;22.80;21.30;;;20.90;99.90;;;;;;4901065;29;20457;-86
2023/05/26 10:54:22;;;;;;;22.47;21.03;;;21.00;99.90;;;;;;4907128;29;20522;-88
2023/05/26 10:56:52;;;;;;;22.53;21.23;;;21.00;99.90;;;;;;4905418;29;20458;-87
2023/05/26 10:59:30;;;;;;;22.70;21.40;;;21.00;99.90;;;;;;4901227;29;20458;-88
2023/05/26 11:02:03;;;;;;;21.57;20.47;;;21.00;99.90;;;;;;4905166;29;20522;-85
2023/05/26 11:04:42;;;;;;;23.27;21.87;;;21.00;99.90;;;;;;4904203;29;20454;-86
2023/05/26 11:07:17;;;;;;;22.73;21.63;;;21.00;99.90;;;;;;4904210;29;21053;-87
2023/05/26 11:10:02;;;;;;;22.43;21.00;;;21.00;99.90;;;;;;4903899;29;20536;-88
2023/05/26 11:13:08;;;;;;;22.63;21.07;;;21.00;99.90;;;;;;4920667;29;20940;-87
2023/05/26 11:18:55;;;;;;;21.80;20.70;;;21.10;99.90;;;;;;4898730;29;20862;-89
2023/05/26 11:21:27;;;;;;;23.70;22.40;;;21.10;99.90;;;;;;4906097;29;20557;-87
2023/05/26 11:23:58;;;;;;;22.60;21.10;;;21.10;99.90;;;;;;4906836;29;20456;-87
2023/05/26 11:33:55;;;;;;;22.40;21.20;;;21.20;99.90;;;;;;4924178;29;20490;-87
2023/05/26 11:36:30;;;;;;;22.40;21.00;;;21.30;99.90;;;;;;4894450;29;20459;-88
2023/05/26 11:39:01;;;;;;;22.30;21.00;;;21.20;99.90;;;;;;4905135;29;20458;-87
2023/05/26 11:41:30;;;;;;;22.57;21.17;;;21.20;99.90;;;;;;4909835;29;20466;-88
2023/05/26 11:48:00;;;;;;;21.67;20.50;;;21.30;99.90;;;;;;4908927;29;20589;-87
2023/05/26 11:50:39;;;;;;;21.43;20.23;;;21.30;99.90;;;;;;4924806;29;21142;-86
2023/05/26 11:53:10;;;;;;;23.37;21.93;;;21.40;99.90;;;;;;4908284;29;20469;-87
2023/05/26 11:55:39;;;;;;;22.63;21.17;;;21.40;99.90;;;;;;4925197;29;20546;-87
2023/05/26 11:58:07;;;;;;;22.37;21.27;;;21.40;99.90;;;;;;4909844;29;20559;-86
2023/05/26 12:00:38;;;;;;;21.80;20.50;;;21.40;99.90;;;;;;4907766;29;20542;-88
2023/05/26 12:03:17;;;;;;;21.40;20.40;;;21.40;99.90;;;;;;4910698;29;20471;-86
2023/05/26 12:05:45;;;;;;;21.67;20.57;;;21.50;99.90;;;;;;4909568;29;20464;-87
2023/05/26 12:08:18;;;;;;;21.17;20.07;;;21.60;99.90;;;;;;4910703;29;20446;-87
2023/05/26 12:10:52;;;;;;;22.50;21.10;;;21.50;99.90;;;;;;4909128;29;20489;-87
2023/05/26 12:13:28;;;;;;;22.03;20.83;;;21.50;99.90;;;;;;4913179;29;20491;-87
2023/05/26 12:16:18;;;;;;;22.07;20.77;;;21.60;99.90;;;;;;4910848;29;20483;-86
2023/05/26 12:18:51;;;;;;;21.53;20.37;;;21.60;99.90;;;;;;4906698;29;20857;-86
2023/05/26 12:24:38;;;;;;;20.87;19.97;;;21.70;99.90;;;;;;4908579;29;20585;-86
2023/05/26 12:27:07;;;;;;;21.67;20.57;;;21.70;99.90;;;;;;4910775;29;20952;-86
2023/05/26 12:30:17;;;;;;;22.03;20.80;;;21.60;99.90;;;;;;4911817;29;20493;-86
2023/05/26 12:33:06;;;;;;;21.40;20.10;;;21.70;99.90;;;;;;4911455;29;20519;-89
2023/05/26 12:35:55;;;;;;;21.60;20.23;;;21.80;99.90;;;;;;4911164;29;20584;-88
2023/05/26 12:42:22;;;;;;;20.43;19.23;;;21.80;99.90;;;;;;4905708;29;20809;-86
2023/05/26 12:44:59;;;;;;;21.13;20.10;;;21.90;99.90;;;;;;4911019;29;20512;-86
2023/05/26 12:47:27;;;;;;;22.77;21.27;;;21.90;99.90;;;;;;4910245;29;20459;-87
2023/05/26 13:10:34;;;;;;;20.80;19.70;;;22.10;99.90;;;;;;4873289;29;20503;-86
2023/05/26 13:13:28;;;;;;;20.57;19.60;;;22.10;99.90;;;;;;4871513;29;20471;-87
2023/05/26 13:16:10;;;;;;;20.43;19.53;;;22.20;99.90;;;;;;4872453;29;21012;-89
2023/05/26 13:18:53;;;;;;;20.80;19.50;;;22.20;99.90;;;;;;4909967;29;20449;-89
2023/05/26 13:21:21;;;;;;;20.47;19.30;;;22.20;99.90;;;;;;4928319;23;21023;-87
2023/05/26 13:28:00;;;;;;;21.27;20.07;;;22.20;99.90;;;;;;4904879;29;20540;-85
2023/05/26 13:34:26;;;;;;;20.93;19.73;;;22.10;99.90;;;;;;4926195;29;20498;-86
2023/05/26 13:42:06;;;;;;;20.13;18.97;;;22.00;99.90;;;;;;4861843;29;20507;-90
2023/05/26 13:45:28;;;;;;;18.40;17.57;;;22.10;99.90;;;;;;4865217;29;20494;-87
2023/05/26 13:48:48;;;;;;;18.97;18.00;;;22.10;99.90;;;;;;4906858;29;20481;-86
2023/05/26 13:51:25;;;;;;;19.13;18.03;;;22.10;99.90;;;;;;4908402;29;21010;-86
2023/05/26 13:54:48;;;;;;;18.87;17.87;;;22.20;99.90;;;;;;4902268;29;20465;-84
2023/05/26 14:01:02;;;;;;;18.50;17.63;;;22.30;99.90;;;;;;4860843;29;20500;-82
2023/05/26 14:03:30;;;;;;;20.13;18.70;;;22.30;99.90;;;;;;4901212;29;20466;-83
2023/05/26 14:06:26;;;;;;;19.57;18.53;;;22.30;99.90;;;;;;4903150;29;20595;-83
2023/05/26 14:08:54;;;;;;;20.33;19.10;;;22.20;99.90;;;;;;4903587;29;20454;-82
2023/05/26 14:11:44;;;;;;;19.00;18.10;;;22.30;99.90;;;;;;4902274;29;20488;-83
2023/05/26 14:17:16;;;;;;;19.13;18.23;;;22.30;99.90;;;;;;4890349;29;20468;-83
2023/05/26 14:19:45;;;;;;;19.57;18.60;;;22.40;99.90;;;;;;4905070;29;21160;-83
2023/05/26 14:22:15;;;;;;;20.63;19.63;;;22.40;99.90;;;;;;4902866;29;20469;-85
2023/05/26 14:24:48;;;;;;;20.83;19.63;;;22.40;99.90;;;;;;4899471;29;20469;-84
2023/05/26 14:27:18;;;;;;;20.53;19.63;;;22.40;99.90;;;;;;4894781;29;20465;-84